Terminal Aerodrome Forecast
Issued by NWS

Home | Current Version | Previous Version | Text Only | Print | Product List | Glossary On
Versions: 1 2 3 4 5 6 7 8 9 10 11 12 13 14 15 16 17 18 19 20 21 22 23 24 25
806
FTPA31 PHFO 302324
TAFHMK
TAF
PHMK 302324Z 0100/0124 VRB06KT P6SM -RA FEW015 SCT025 BKN080
     FM012000 12008KT P6SM VCSH SCT020 BKN045=

USA.gov is the U.S. government's official web portal to all federal, state and local government web resources and services.